Terminal Aerodrome Forecast
Issued by NWS

Home | Current Version | Previous Version | Text Only | Print | Product List | Glossary On
Versions: 1 2 3 4 5 6 7 8 9 10 11 12 13 14 15 16 17 18 19 20 21 22 23 24 25 26 27 28 29 30 31 32 33 34 35 36 37 38 39 40 41 42 43 44 45 46 47 48 49 50
227
FTUS41 KCTP 122128 AAD
TAFBFD
TAF AMD
KBFD 122128Z 1221/1318 22008G19KT 1 1/2SM -SN BKN021 OVC027
     FM122300 24012G20KT 1 1/2SM -SN OVC017
      TEMPO 1300/1302 28020G32KT 1/4SM +SN SQ BLSN VV007
     FM130200 29012G22KT 1/2SM SN SQ OVC015
     FM130400 29012G19KT 3/4SM -SN OVC015
     FM130600 29015G26KT 3/4SM -SN BLSN OVC015=

USA.gov is the U.S. government's official web portal to all federal, state and local government web resources and services.